Latest Weather Observations for Mount William

IDV60801

Issued at 4:05 pm EST Monday 28 July 2014 (issued every 30 minutes, with the page automatically refreshed every 10 minutes)

About weather observations | Map of weather stations | Latest weather observations for VIC | Other Formats
Station Details ID: 079103 Name: MOUNT WILLIAM Lat: -37.30 Lon: 142.60 Height: 1150.0 m
Data from the previous 72 hours. | See also: Recent months at Mount William
Date/Time
EST
Temp
°C
App
Temp
°C
Dew
Point
Rel
Hum
%
Delta-T
°C
Wind Press
QNH
hPa
Press
MSL
hPa
Rain
since 9 am
mm
Dir
 
Spd
km/h
Gust
km/h
Spd
kts
Gust
kts
28/04:00pm 6.3 -4.1 4.3 87 0.9 W 48 65 26 35 - - 0.4
28/03:30pm 6.4 -3.6 6.3 99 0.0 W 48 72 26 39 - - 0.4
28/03:00pm 5.9 -4.2 5.8 99 0.0 W 48 76 26 41 - - 0.4
28/02:42pm 5.9 -3.4 5.8 99 0.0 W 44 67 24 36 - - 0.4
28/02:30pm 5.6 -3.8 5.5 99 0.0 W 44 56 24 30 - - 0.4
28/02:15pm 5.5 -3.7 5.4 99 0.0 W 43 65 23 35 - - 0.4
28/02:00pm 5.5 -3.3 5.4 99 0.0 W 41 57 22 31 - - 0.4
28/01:30pm 5.3 -3.2 5.2 99 0.0 W 39 59 21 32 - - 0.4
28/01:22pm 5.2 -3.7 5.1 99 0.0 W 41 59 22 32 - - 0.4
28/01:00pm 5.3 -4.0 5.2 99 0.0 W 43 56 23 30 - - 0.4
28/12:32pm 5.5 -2.9 5.4 99 0.0 W 39 59 21 32 - - 0.4
28/12:30pm 5.5 -2.9 5.4 99 0.0 W 39 52 21 28 - - 0.4
28/12:13pm 5.6 -2.8 5.5 99 0.0 W 39 63 21 34 - - 0.4
28/12:00pm 5.6 -2.4 5.5 99 0.0 W 37 52 20 28 - - 0.4
28/11:42am 5.7 -2.7 5.6 99 0.0 W 39 72 21 39 - - 0.4
28/11:30am 5.5 -2.9 5.4 99 0.0 W 39 57 21 31 - - 0.4
28/11:00am 5.4 -2.3 5.3 99 0.0 W 35 46 19 25 - - 0.4
28/10:30am 5.2 -2.2 5.1 99 0.0 W 33 46 18 25 - - 0.2
28/10:00am 5.2 -1.2 5.1 99 0.0 W 28 41 15 22 - - 0.2
28/09:33am 5.1 -1.3 5.0 99 0.0 W 28 48 15 26 - - 0.0
28/09:30am 5.0 -1.5 4.9 99 0.0 W 28 41 15 22 - - 0.0
28/09:00am 4.9 -0.8 4.8 99 0.0 W 24 33 13 18 - - 0.0
28/08:30am 5.0 -0.7 4.9 99 0.0 W 24 37 13 20 - - 0.0
28/08:00am 4.6 -1.6 4.5 99 0.0 W 26 39 14 21 - - 0.0
28/07:30am 4.1 -2.2 4.0 99 0.0 W 26 35 14 19 - - 0.0
28/07:00am 4.0 -3.1 3.6 97 0.2 W 30 52 16 28 - - 0.0
28/06:52am 4.1 -3.0 3.4 95 0.3 W 30 52 16 28 - - 0.0
28/06:30am 4.4 -3.7 3.4 93 0.4 W 35 48 19 26 - - 0.0
28/06:00am 4.2 -4.0 2.7 90 0.7 W 35 57 19 31 - - 0.0
28/05:30am 4.6 -4.0 2.6 87 0.9 W 37 61 20 33 - - 0.0
28/05:03am 4.9 -3.4 2.4 84 1.1 WNW 35 56 19 30 - - 0.0
28/05:00am 4.8 -3.5 2.3 84 1.1 WNW 35 54 19 29 - - 0.0
28/04:30am 5.0 -2.9 2.4 83 1.1 WNW 33 59 18 32 - - 0.0
28/04:01am 5.3 -3.0 2.3 81 1.3 WNW 35 54 19 29 - - 0.0
28/04:00am 5.3 -3.4 2.3 81 1.3 WNW 37 54 20 29 - - 0.0
28/03:30am 5.8 -3.6 2.4 79 1.5 WNW 41 61 22 33 - - 0.0
28/03:23am 5.8 -3.2 2.4 79 1.5 WNW 39 59 21 32 - - 0.0
28/03:00am 5.8 -3.2 2.4 79 1.5 WNW 39 54 21 29 - - 0.0
28/02:30am 6.0 -3.0 2.6 79 1.5 WNW 39 59 21 32 - - 0.0
28/02:03am 5.6 -2.2 2.6 81 1.3 NW 33 54 18 29 - - 0.0
28/02:00am 5.4 -2.2 2.6 82 1.2 NW 32 43 17 23 - - 0.0
28/01:30am 5.9 -2.3 2.7 80 1.4 NW 35 56 19 30 - - 0.0
28/01:00am 5.9 -2.6 2.9 81 1.3 NW 37 61 20 33 - - 0.0
28/12:47am 5.9 -2.7 2.7 80 1.4 NW 37 57 20 31 - - 0.0
28/12:30am 5.7 -2.5 2.9 82 1.2 NW 35 52 19 28 - - 0.0
28/12:00am 5.6 -2.6 2.9 83 1.2 NW 35 59 19 32 - - 0.0
 
Date/Time
EST
Temp
°C
App
Temp
°C
Dew
Point
Rel
Hum
%
Delta-T
°C
Wind Press
QNH
hPa
Press
MSL
hPa
Rain
since 9 am
mm
Dir
 
Spd
km/h
Gust
km/h
Spd
kts
Gust
kts
27/11:30pm 5.4 -3.1 3.1 85 1.0 NW 37 61 20 33 - - 0.0
27/11:00pm 5.3 -2.8 3.2 86 0.9 NW 35 61 19 33 - - 0.0
27/10:37pm 5.1 -2.6 3.3 88 0.8 NW 33 52 18 28 - - 0.0
27/10:30pm 5.0 -3.1 3.2 88 0.8 NW 35 48 19 26 - - 0.0
27/10:00pm 5.0 -2.5 3.5 90 0.7 NW 32 41 17 22 - - 0.0
27/09:47pm 5.0 -2.1 3.5 90 0.7 NW 30 52 16 28 - - 0.0
27/09:30pm 4.8 -2.0 3.3 90 0.7 NW 28 41 15 22 - - 0.0
27/09:00pm 4.8 -2.3 3.8 93 0.5 NW 30 52 16 28 - - 0.0
27/08:59pm 4.8 -2.3 3.8 93 0.5 NW 30 52 16 28 - - 0.0
27/08:30pm 4.8 -2.3 3.8 93 0.5 NW 30 46 16 25 - - 0.0
27/08:02pm 4.8 -2.3 3.6 92 0.5 NW 30 48 16 26 - - 0.0
27/08:00pm 4.7 -2.4 3.7 93 0.4 NW 30 43 16 23 - - 0.0
27/07:35pm 4.8 -2.7 3.6 92 0.5 NW 32 50 17 27 - - 0.0
27/07:30pm 4.7 -2.4 3.7 93 0.4 NW 30 43 16 23 - - 0.0
27/07:00pm 4.9 -3.1 3.6 91 0.6 WNW 35 56 19 30 - - 0.0
27/06:59pm 4.8 -2.9 3.5 91 0.6 WNW 33 56 18 30 - - 0.0
27/06:30pm 4.8 -2.8 3.9 94 0.4 WNW 33 50 18 27 - - 0.0
27/06:05pm 4.7 -2.9 4.0 95 0.3 WNW 33 59 18 32 - - 0.0
27/06:00pm 4.8 -2.7 4.2 96 0.3 NW 33 48 18 26 - - 0.0
27/05:37pm 4.7 -2.6 4.6 99 0.0 NW 32 50 17 27 - - 0.0
27/05:30pm 4.9 -2.5 4.8 99 0.0 NW 33 50 18 27 - - 0.0
27/05:00pm 5.2 -2.0 5.1 99 0.0 NW 32 46 17 25 - - 0.0
27/04:50pm 5.4 -1.9 5.3 99 0.0 NW 33 54 18 29 - - 0.0
27/04:30pm 5.4 -2.3 5.3 99 0.0 NW 35 46 19 25 - - 0.0
27/04:00pm 5.3 -2.4 5.2 99 0.0 NW 35 52 19 28 - - 0.0
27/03:32pm 5.4 -1.7 5.3 99 0.0 WNW 32 52 17 28 - - 0.0
27/03:30pm 5.3 -2.4 5.2 99 0.0 WNW 35 52 19 28 - - 0.0
27/03:00pm 5.0 -3.6 4.9 99 0.0 WNW 39 57 21 31 - - 0.0
27/02:30pm 5.1 -3.8 5.0 99 0.0 W 41 63 22 34 - - 0.0
27/02:15pm 4.9 -4.1 4.8 99 0.0 W 41 59 22 32 - - 0.0
27/02:00pm 5.1 -4.2 5.0 99 0.0 W 43 59 23 32 - - 0.0
27/01:30pm 5.2 -3.3 5.1 99 0.0 W 39 63 21 34 - - 0.0
27/01:05pm 5.0 -3.6 4.9 99 0.0 WNW 39 59 21 32 - - 0.0
27/01:00pm 5.1 -3.4 5.0 99 0.0 WNW 39 57 21 31 - - 0.0
27/12:32pm 5.0 -3.6 4.9 99 0.0 WNW 39 57 21 31 - - 0.0
27/12:30pm 4.9 -4.1 4.8 99 0.0 WNW 41 57 22 31 - - 0.0
27/12:00pm 5.4 -3.1 5.3 99 0.0 WNW 39 59 21 32 - - 0.0
27/11:37am 5.1 -3.8 5.0 99 0.0 WNW 41 59 22 32 - - 0.0
27/11:30am 5.5 -3.9 5.4 99 0.0 WNW 44 57 24 31 - - 0.0
27/11:08am 4.7 -4.7 4.6 99 0.0 W 43 63 23 34 - - 0.0
27/11:00am 4.4 -5.0 4.3 99 0.0 W 43 57 23 31 - - 0.0
27/10:30am 4.3 -4.4 4.2 99 0.0 W 39 54 21 29 - - 0.0
27/10:00am 3.9 -4.9 3.8 99 0.0 W 39 48 21 26 - - 0.0
27/09:30am 3.5 -5.7 3.4 99 0.0 W 41 52 22 28 - - 0.0
27/09:00am 3.2 -6.6 3.1 99 0.0 W 44 59 24 32 - - 0.6
27/08:36am 3.2 -8.2 3.1 99 0.0 W 52 72 28 39 - - 0.6
27/08:30am 3.2 -7.8 3.1 99 0.0 W 50 65 27 35 - - 0.6
27/08:00am 3.2 -7.8 3.1 99 0.0 W 50 65 27 35 - - 0.6
27/07:30am 3.0 -6.7 2.9 99 0.0 W 43 57 23 31 - - 0.4
27/07:18am 3.1 -5.8 3.0 99 0.0 W 39 65 21 35 - - 0.4
27/07:00am 2.9 -4.7 2.8 99 0.0 W 32 46 17 25 - - 0.4
27/06:30am 2.7 -4.9 2.6 99 0.0 W 32 48 17 26 - - 0.4
27/06:00am 3.1 -6.2 3.0 99 0.0 WNW 41 54 22 29 - - 0.4
27/05:33am 3.2 -4.0 3.1 99 0.0 WNW 30 48 16 26 - - 0.4
27/05:30am 3.2 -4.0 3.1 99 0.0 WNW 30 43 16 23 - - 0.4
27/05:00am 3.1 -4.5 3.0 99 0.0 WNW 32 43 17 23 - - 0.4
27/04:30am 3.1 -5.8 3.0 99 0.0 W 39 48 21 26 - - 0.4
27/04:00am 3.3 -5.2 3.2 99 0.0 W 37 46 20 25 - - 0.4
27/03:30am 3.4 -4.7 3.3 99 0.0 W 35 43 19 23 - - 0.4
27/03:00am 3.2 -3.6 3.1 99 0.0 W 28 35 15 19 - - 0.2
27/02:30am 3.4 -3.0 3.3 99 0.0 W 26 30 14 16 - - 0.2
27/02:00am 3.8 -2.1 3.7 99 0.0 W 24 28 13 15 - - 0.2
27/01:30am 3.8 -2.1 3.7 99 0.0 W 24 32 13 17 - - 0.2
27/01:00am 3.9 -1.3 3.8 99 0.0 W 20 30 11 16 - - 0.2
27/12:30am 4.1 -0.8 4.0 99 0.0 W 19 26 10 14 - - 0.2
27/12:00am 4.0 -0.9 3.9 99 0.0 W 19 24 10 13 - - 0.2
 
Date/Time
EST
Temp
°C
App
Temp
°C
Dew
Point
Rel
Hum
%
Delta-T
°C
Wind Press
QNH
hPa
Press
MSL
hPa
Rain
since 9 am
mm
Dir
 
Spd
km/h
Gust
km/h
Spd
kts
Gust
kts
26/11:30pm 4.0 -1.5 3.9 99 0.0 W 22 32 12 17 - - 0.2
26/11:00pm 4.0 -1.1 3.9 99 0.0 W 20 22 11 12 - - 0.2
26/10:30pm 3.9 -1.3 3.8 99 0.0 W 20 24 11 13 - - 0.2
26/10:00pm 3.8 -1.4 3.7 99 0.0 WSW 20 26 11 14 - - 0.2
26/09:30pm 3.9 -0.3 3.8 99 0.0 WSW 15 19 8 10 - - 0.0
26/09:00pm 3.6 -0.7 3.5 99 0.0 W 15 22 8 12 - - 0.0
26/08:30pm 3.9 -0.3 3.8 99 0.0 W 15 22 8 12 - - 0.0
26/08:00pm 3.7 -0.9 3.6 99 0.0 W 17 22 9 12 - - 0.0
26/07:30pm 4.2 -0.3 4.1 99 0.0 WSW 17 26 9 14 - - 0.0
26/07:00pm 4.2 1.2 4.1 99 0.0 W 9 15 5 8 - - 0.0
26/06:30pm 4.3 0.6 4.2 99 0.0 WSW 13 22 7 12 - - 0.0
26/06:00pm 4.2 -0.9 4.1 99 0.0 WSW 20 30 11 16 - - 0.0
26/05:30pm 4.0 -0.2 3.9 99 0.0 WSW 15 30 8 16 - - 0.0
26/05:00pm 4.1 -0.1 4.0 99 0.0 W 15 30 8 16 - - 0.0
26/04:30pm 4.3 -0.2 4.2 99 0.0 WSW 17 28 9 15 - - 0.0
26/04:00pm 4.3 0.2 4.2 99 0.0 WSW 15 28 8 15 - - 0.0
26/03:30pm 4.2 0.8 4.1 99 0.0 W 11 20 6 11 - - 0.0
26/03:00pm 4.6 1.3 4.5 99 0.0 W 11 20 6 11 - - 0.0
26/02:30pm 4.3 0.2 4.2 99 0.0 WSW 15 30 8 16 - - 0.0
26/02:00pm 4.4 -0.5 4.3 99 0.0 WSW 19 33 10 18 - - 0.0
26/01:30pm 4.4 0.7 4.3 99 0.0 W 13 28 7 15 - - 0.0
26/01:00pm 4.2 -0.3 4.1 99 0.0 WSW 17 32 9 17 - - 0.0
26/12:30pm 4.1 -0.8 4.0 99 0.0 WSW 19 32 10 17 - - 0.0
26/12:00pm 4.0 -1.1 3.9 99 0.0 W 20 35 11 19 - - 0.0
26/11:30am 3.8 -0.4 3.7 99 0.0 WSW 15 30 8 16 - - 0.0
26/11:00am 3.9 -0.3 3.8 99 0.0 W 15 30 8 16 - - 0.0
26/10:30am 3.8 -1.4 3.7 99 0.0 W 20 39 11 21 - - 0.0
26/10:00am 3.7 -3.0 3.6 99 0.0 WSW 28 43 15 23 - - 0.0
26/09:37am 3.5 -4.0 3.4 99 0.0 WSW 32 50 17 27 - - 0.0
26/09:30am 3.6 -3.9 3.5 99 0.0 WSW 32 46 17 25 - - 0.0
26/09:00am 3.8 -1.2 3.7 99 0.0 WSW 19 37 10 20 - - 9.0
26/08:30am 3.9 -2.4 3.8 99 0.0 WSW 26 43 14 23 - - 9.0
26/08:00am 3.8 -0.8 3.7 99 0.0 W 17 33 9 18 - - 9.0
26/07:30am 3.9 -0.7 3.8 99 0.0 W 17 33 9 18 - - 9.0
26/07:00am 4.0 -0.2 3.9 99 0.0 WSW 15 28 8 15 - - 9.0
26/06:30am 4.1 -0.8 4.0 99 0.0 W 19 32 10 17 - - 9.0
26/06:00am 4.1 -0.8 4.0 99 0.0 W 19 32 10 17 - - 9.0
26/05:30am 4.0 -0.9 3.9 99 0.0 W 19 35 10 19 - - 8.8
26/05:00am 4.0 -1.1 3.9 99 0.0 W 20 33 11 18 - - 8.8
26/04:30am 4.1 -0.4 4.0 99 0.0 W 17 30 9 16 - - 8.8
26/04:00am 4.0 -0.2 3.9 99 0.0 WSW 15 26 8 14 - - 8.8
26/03:30am 4.1 -0.8 4.0 99 0.0 WSW 19 30 10 16 - - 8.8
26/03:00am 4.1 -2.9 4.0 99 0.0 WSW 30 39 16 21 - - 8.8
26/02:30am 4.3 -1.5 4.2 99 0.0 WSW 24 33 13 18 - - 8.8
26/02:00am 4.5 -0.5 4.4 99 0.0 WSW 20 32 11 17 - - 8.8
26/01:30am 4.5 0.4 4.4 99 0.0 WSW 15 28 8 15 - - 8.6
26/01:00am 4.5 1.2 4.4 99 0.0 WSW 11 26 6 14 - - 8.6
26/12:30am 4.5 1.2 4.4 99 0.0 W 11 24 6 13 - - 8.6
26/12:00am 4.6 0.9 4.5 99 0.0 W 13 28 7 15 - - 8.6
 
Date/Time
EST
Temp
°C
App
Temp
°C
Dew
Point
Rel
Hum
%
Delta-T
°C
Wind Press
QNH
hPa
Press
MSL
hPa
Rain
since 9 am
mm
Dir
 
Spd
km/h
Gust
km/h
Spd
kts
Gust
kts
25/11:30pm 4.5 1.6 4.4 99 0.0 W 9 22 5 12 - - 8.4
25/11:00pm 4.5 -0.9 4.4 99 0.0 WSW 22 33 12 18 - - 8.2
25/10:30pm 4.5 -0.3 4.4 99 0.0 WSW 19 33 10 18 - - 8.2
25/10:00pm 4.5 0.0 4.4 99 0.0 WSW 17 37 9 20 - - 8.2
25/09:30pm 4.5 -0.3 4.4 99 0.0 WSW 19 37 10 20 - - 8.2
25/09:00pm 4.6 -0.2 4.5 99 0.0 WSW 19 37 10 20 - - 8.2
25/08:30pm 4.7 0.3 4.6 99 0.0 W 17 32 9 17 - - 8.2
25/08:00pm 4.8 0.8 4.7 99 0.0 W 15 33 8 18 - - 8.0
25/07:30pm 4.7 0.3 4.6 99 0.0 WSW 17 30 9 16 - - 8.0
25/07:00pm 4.8 0.0 4.7 99 0.0 W 19 37 10 20 - - 8.0
25/06:30pm 4.9 -0.1 4.8 99 0.0 W 20 37 11 20 - - 7.8
25/06:00pm 4.8 0.0 4.7 99 0.0 WSW 19 33 10 18 - - 7.8
25/05:30pm 5.1 0.4 5.0 99 0.0 W 19 32 10 17 - - 7.8
25/05:00pm 5.0 -0.3 4.9 99 0.0 W 22 35 12 19 - - 7.8
25/04:30pm 5.1 -0.2 5.0 99 0.0 W 22 33 12 18 - - 7.6

Other Formats:

Comma delimited format used in spreadsheet applications
http://www.bom.gov.au/fwo/IDV60801/IDV60801.94833.axf

JavaScript Object Notation format (JSON) in row-major order
http://www.bom.gov.au/fwo/IDV60801/IDV60801.94833.json